Time;durP1;ratioP1;P1;durP2;ratioP2;P2;SDS_P1;SDS_P2;PMS_P1;PMS_P2;Temp;Humidity;BMP_temperature;BMP_pressure;BME280_temperature;BME280_humidity;BME280_pressure;Samples;Min_cycle;Max_cycle;Signal;HPM_P1;HPM_P2
2021/11/07 00:01:52;;;;;;;;;;;6.80;63.60;;;;;;6276667;22;19906;-71
2021/11/07 00:05:02;;;;;;;;;;;6.70;63.60;;;;;;6276647;22;19929;-70
2021/11/07 00:07:18;;;;;;;;;;;6.70;63.80;;;;;;6268806;22;19906;-71
2021/11/07 00:12:16;;;;;;;;;;;6.70;63.80;;;;;;6276806;22;20287;-71
2021/11/07 00:14:47;;;;;;;;;;;6.60;63.80;;;;;;6274727;22;19926;-70
2021/11/07 00:17:12;;;;;;;;;;;6.60;63.80;;;;;;6275917;22;20013;-71
2021/11/07 00:19:42;;;;;;;;;;;6.60;63.80;;;;;;6274660;22;19899;-70
2021/11/07 00:22:36;;;;;;;;;;;6.60;63.90;;;;;;6276447;22;19903;-70
2021/11/07 00:25:27;;;;;;;;;;;6.60;63.90;;;;;;6276492;22;19949;-70
2021/11/07 00:27:59;;;;;;;;;;;6.60;63.90;;;;;;6276363;22;19934;-71
2021/11/07 00:36:16;;;;;;;;;;;6.50;64.00;;;;;;6183668;23;19924;-71
2021/11/07 00:38:50;;;;;;;;;;;6.50;64.00;;;;;;6257773;22;19899;-71
2021/11/07 00:41:33;;;;;;;;;;;6.50;63.80;;;;;;6274893;22;20235;-72
2021/11/07 00:46:52;;;;;;;;;;;6.50;63.60;;;;;;6276516;22;19899;-71
2021/11/07 00:49:20;;;;;;;;;;;6.40;63.40;;;;;;6275742;22;19903;-71
2021/11/07 00:57:14;;;;;;;;;;;6.40;63.30;;;;;;6278921;22;19922;-70
2021/11/07 00:59:54;;;;;;;;;;;6.30;63.20;;;;;;6278367;22;19978;-70
2021/11/07 01:02:29;;;;;;;;;;;6.30;63.20;;;;;;6278255;22;19910;-70
2021/11/07 01:04:57;;;;;;;;;;;6.20;63.10;;;;;;6278236;22;19899;-71
2021/11/07 01:07:24;;;;;;;;;;;6.20;63.10;;;;;;6276791;22;19944;-71
2021/11/07 01:09:53;;;;;;;;;;;6.20;63.20;;;;;;6278298;22;19899;-71
2021/11/07 01:12:21;;;;;;;;;;;6.20;63.20;;;;;;6278334;22;19906;-71
2021/11/07 01:14:48;;;;;;;;;;;6.10;63.20;;;;;;6278064;22;20241;-71
2021/11/07 01:17:13;;;;;;;;;;;6.10;63.30;;;;;;6278009;22;20282;-70
2021/11/07 01:19:39;;;;;;;;;;;6.10;63.20;;;;;;6278268;22;19899;-71
2021/11/07 01:22:07;;;;;;;;;;;6.10;63.30;;;;;;6276517;22;20279;-71
2021/11/07 01:24:36;;;;;;;;;;;6.00;63.40;;;;;;6278019;22;19900;-71
2021/11/07 01:27:17;;;;;;;;;;;6.00;63.60;;;;;;6276443;22;19896;-71
2021/11/07 01:29:47;;;;;;;;;;;6.00;63.70;;;;;;6277976;22;20025;-71
2021/11/07 01:32:14;;;;;;;;;;;6.00;63.70;;;;;;6278218;22;20327;-71
2021/11/07 01:34:57;;;;;;;;;;;6.00;63.70;;;;;;6276458;22;19899;-71
2021/11/07 01:37:25;;;;;;;;;;;6.00;63.70;;;;;;6276578;22;19895;-70
2021/11/07 01:39:58;;;;;;;;;;;6.00;63.70;;;;;;6278079;22;20289;-71
2021/11/07 01:45:00;;;;;;;;;;;6.00;63.80;;;;;;6278030;22;20298;-71
2021/11/07 01:47:29;;;;;;;;;;;6.00;63.90;;;;;;6275260;22;19947;-71
2021/11/07 01:49:54;;;;;;;;;;;6.00;64.00;;;;;;6274985;22;19966;-72
2021/11/07 01:52:21;;;;;;;;;;;5.90;64.00;;;;;;6275082;22;19923;-71
2021/11/07 01:57:16;;;;;;;;;;;5.90;64.00;;;;;;6276170;22;19899;-71
2021/11/07 01:59:43;;;;;;;;;;;5.90;64.00;;;;;;6276198;22;19931;-71
2021/11/07 02:02:12;;;;;;;;;;;5.90;63.90;;;;;;6276697;22;19949;-70
2021/11/07 02:04:38;;;;;;;;;;;5.90;63.80;;;;;;6274352;22;19903;-70
2021/11/07 02:07:05;;;;;;;;;;;5.90;63.80;;;;;;6276252;22;19895;-71
2021/11/07 02:09:30;;;;;;;;;;;5.90;63.80;;;;;;6276494;22;19899;-70
2021/11/07 02:11:56;;;;;;;;;;;5.80;63.70;;;;;;6276501;22;19901;-70
2021/11/07 02:14:22;;;;;;;;;;;5.80;63.60;;;;;;6274329;22;19934;-70
2021/11/07 02:16:48;;;;;;;;;;;5.80;63.60;;;;;;6276726;22;19903;-71
2021/11/07 02:19:15;;;;;;;;;;;5.70;63.50;;;;;;6274439;22;19934;-70
2021/11/07 02:21:42;;;;;;;;;;;5.70;63.60;;;;;;6276455;22;20281;-70
2021/11/07 02:24:09;;;;;;;;;;;5.70;63.90;;;;;;6274590;22;20216;-70
2021/11/07 02:26:34;;;;;;;;;;;5.60;64.10;;;;;;6274701;22;19899;-70
2021/11/07 02:29:00;;;;;;;;;;;5.60;64.30;;;;;;6274532;22;20216;-70
2021/11/07 02:31:26;;;;;;;;;;;5.70;64.50;;;;;;6274479;22;19899;-71
2021/11/07 02:33:52;;;;;;;;;;;5.70;64.70;;;;;;6276190;22;20227;-71
2021/11/07 02:36:18;;;;;;;;;;;5.70;64.90;;;;;;6276171;22;19899;-71
2021/11/07 02:38:44;;;;;;;;;;;5.80;65.10;;;;;;6276027;22;20288;-71
2021/11/07 02:41:13;;;;;;;;;;;5.80;65.10;;;;;;6276199;22;20267;-71
2021/11/07 02:43:40;;;;;;;;;;;5.90;65.10;;;;;;6274365;22;19903;-70
2021/11/07 02:46:06;;;;;;;;;;;5.90;65.10;;;;;;6276235;22;20318;-71
2021/11/07 02:48:32;;;;;;;;;;;5.90;65.10;;;;;;6276037;22;19903;-72
2021/11/07 02:50:57;;;;;;;;;;;5.90;65.00;;;;;;6274376;22;19949;-71
2021/11/07 02:53:23;;;;;;;;;;;6.00;64.90;;;;;;6274874;22;20254;-70
2021/11/07 02:55:48;;;;;;;;;;;6.00;64.70;;;;;;6276104;22;20327;-71
2021/11/07 02:58:14;;;;;;;;;;;5.90;64.40;;;;;;6274376;22;20307;-71
2021/11/07 03:00:40;;;;;;;;;;;6.00;64.40;;;;;;6276136;22;19899;-71
2021/11/07 03:03:05;;;;;;;;;;;6.00;64.50;;;;;;6276038;22;19903;-71
2021/11/07 03:05:32;;;;;;;;;;;5.90;64.60;;;;;;6275894;22;20334;-71
2021/11/07 03:07:58;;;;;;;;;;;6.00;64.70;;;;;;6274324;22;19899;-71
2021/11/07 03:10:26;;;;;;;;;;;6.10;64.90;;;;;;6275994;22;19899;-71
2021/11/07 03:13:02;;;;;;;;;;;6.10;64.90;;;;;;6275580;22;19900;-71
2021/11/07 03:15:28;;;;;;;;;;;6.10;64.90;;;;;;6275761;22;19910;-71
2021/11/07 03:17:54;;;;;;;;;;;6.20;64.90;;;;;;6275472;22;19899;-71
2021/11/07 03:20:20;;;;;;;;;;;6.20;64.80;;;;;;6274216;22;19914;-70
2021/11/07 03:22:45;;;;;;;;;;;6.30;64.80;;;;;;6275569;22;19903;-70
2021/11/07 03:25:11;;;;;;;;;;;6.30;64.70;;;;;;6275752;22;19929;-70
2021/11/07 03:27:42;;;;;;;;;;;6.30;64.60;;;;;;6274064;22;19972;-70
2021/11/07 03:33:16;;;;;;;;;;;6.30;64.50;;;;;;6276337;22;19956;-70
2021/11/07 03:35:43;;;;;;;;;;;6.40;64.50;;;;;;6275840;22;19929;-71
2021/11/07 03:38:09;;;;;;;;;;;6.40;64.40;;;;;;6275635;22;19949;-71
2021/11/07 03:40:35;;;;;;;;;;;6.40;64.40;;;;;;6273989;22;20345;-70
2021/11/07 03:43:00;;;;;;;;;;;6.40;64.40;;;;;;6275309;22;19903;-70
2021/11/07 03:45:27;;;;;;;;;;;6.50;64.40;;;;;;6275524;22;20451;-70
2021/11/07 03:47:53;;;;;;;;;;;6.50;64.30;;;;;;6273894;22;19895;-70
2021/11/07 03:50:20;;;;;;;;;;;6.50;64.10;;;;;;6275619;22;19987;-70
2021/11/07 03:52:47;;;;;;;;;;;6.50;64.00;;;;;;6275308;22;19925;-70
2021/11/07 03:55:13;;;;;;;;;;;6.50;63.90;;;;;;6275469;22;19910;-70
2021/11/07 03:57:38;;;;;;;;;;;6.60;64.00;;;;;;6275403;22;20238;-70
2021/11/07 04:00:09;;;;;;;;;;;6.60;64.00;;;;;;6275290;22;19941;-70
2021/11/07 04:02:35;;;;;;;;;;;6.60;63.90;;;;;;6273779;22;19948;-70
2021/11/07 04:05:00;;;;;;;;;;;6.60;63.80;;;;;;6275430;22;19934;-71
2021/11/07 04:07:26;;;;;;;;;;;6.70;63.80;;;;;;6275574;22;20314;-71
2021/11/07 04:09:52;;;;;;;;;;;6.70;63.70;;;;;;6273708;22;19899;-71
2021/11/07 04:12:17;;;;;;;;;;;6.70;63.60;;;;;;6275123;22;19899;-70
2021/11/07 04:14:43;;;;;;;;;;;6.70;63.50;;;;;;6275030;22;19911;-70
2021/11/07 04:17:09;;;;;;;;;;;6.70;63.40;;;;;;6275346;22;19910;-71
2021/11/07 04:19:36;;;;;;;;;;;6.70;63.40;;;;;;6275223;22;19998;-70
2021/11/07 04:22:04;;;;;;;;;;;6.70;63.30;;;;;;6275102;22;19941;-71
2021/11/07 04:24:30;;;;;;;;;;;6.70;63.30;;;;;;6274282;22;19899;-70
2021/11/07 04:26:56;;;;;;;;;;;6.70;63.30;;;;;;6274616;22;20315;-71
2021/11/07 04:29:22;;;;;;;;;;;6.70;63.40;;;;;;6274441;22;19927;-71
2021/11/07 04:31:48;;;;;;;;;;;6.70;63.40;;;;;;6275107;22;19903;-70
2021/11/07 04:34:13;;;;;;;;;;;6.70;63.30;;;;;;6275102;22;19899;-71
2021/11/07 04:36:39;;;;;;;;;;;6.70;63.20;;;;;;6275125;22;19903;-71
2021/11/07 04:39:05;;;;;;;;;;;6.70;63.20;;;;;;6275182;22;19899;-71
2021/11/07 04:41:30;;;;;;;;;;;6.70;63.20;;;;;;6275313;22;19952;-71
2021/11/07 04:43:56;;;;;;;;;;;6.80;63.30;;;;;;6275045;22;19926;-71
2021/11/07 04:46:22;;;;;;;;;;;6.80;63.40;;;;;;6275115;22;19927;-70
2021/11/07 04:48:48;;;;;;;;;;;6.80;63.40;;;;;;6275235;22;20045;-71
2021/11/07 04:51:13;;;;;;;;;;;6.80;63.30;;;;;;6275250;22;20323;-71
2021/11/07 04:53:39;;;;;;;;;;;6.80;63.30;;;;;;6274993;22;20314;-71
2021/11/07 04:56:05;;;;;;;;;;;6.90;63.30;;;;;;6275189;22;19899;-71
2021/11/07 04:58:31;;;;;;;;;;;6.90;63.30;;;;;;6275087;22;19899;-71
2021/11/07 05:00:57;;;;;;;;;;;6.90;63.20;;;;;;6275164;22;19934;-71
2021/11/07 05:03:23;;;;;;;;;;;6.90;63.20;;;;;;6275027;22;19903;-71
2021/11/07 05:05:48;;;;;;;;;;;7.00;63.20;;;;;;6275242;22;19899;-70
2021/11/07 05:08:14;;;;;;;;;;;7.00;63.10;;;;;;6275054;22;19907;-70
2021/11/07 05:10:40;;;;;;;;;;;7.00;63.00;;;;;;6275010;22;19910;-71
2021/11/07 05:13:08;;;;;;;;;;;7.00;62.90;;;;;;6274717;22;19922;-71
2021/11/07 05:15:33;;;;;;;;;;;7.00;62.90;;;;;;6274961;22;19907;-70
2021/11/07 05:17:59;;;;;;;;;;;7.10;63.00;;;;;;6273376;22;19910;-70
2021/11/07 05:20:24;;;;;;;;;;;7.10;63.00;;;;;;6273241;22;20277;-71
2021/11/07 05:22:51;;;;;;;;;;;7.10;63.00;;;;;;6274764;22;19985;-71
2021/11/07 05:25:16;;;;;;;;;;;7.10;62.90;;;;;;6274883;22;19899;-70
2021/11/07 05:27:42;;;;;;;;;;;7.10;63.00;;;;;;6275094;22;19900;-71
2021/11/07 05:30:09;;;;;;;;;;;7.10;63.00;;;;;;6274881;22;20334;-71
2021/11/07 05:32:35;;;;;;;;;;;7.20;63.10;;;;;;6274841;22;19899;-71
2021/11/07 05:35:00;;;;;;;;;;;7.20;63.10;;;;;;6273234;22;20304;-71
2021/11/07 05:37:26;;;;;;;;;;;7.20;63.00;;;;;;6274723;22;20278;-71
2021/11/07 05:39:53;;;;;;;;;;;7.30;63.10;;;;;;6275415;22;19899;-70
2021/11/07 05:42:19;;;;;;;;;;;7.30;63.00;;;;;;6276590;22;19907;-71
2021/11/07 05:44:45;;;;;;;;;;;7.30;63.00;;;;;;6276968;22;19949;-71
2021/11/07 05:47:10;;;;;;;;;;;7.40;63.00;;;;;;6275202;22;19903;-70
2021/11/07 05:49:36;;;;;;;;;;;7.40;63.00;;;;;;6276779;22;19914;-71
2021/11/07 05:52:02;;;;;;;;;;;7.40;63.00;;;;;;6276747;22;20230;-71
2021/11/07 05:54:28;;;;;;;;;;;7.40;62.90;;;;;;6275350;22;20234;-71
2021/11/07 05:56:53;;;;;;;;;;;7.50;62.80;;;;;;6276720;22;19899;-71
2021/11/07 05:59:19;;;;;;;;;;;7.40;62.60;;;;;;6276739;22;19969;-70
2021/11/07 06:01:45;;;;;;;;;;;7.40;62.60;;;;;;6276744;22;19981;-70
2021/11/07 06:04:11;;;;;;;;;;;7.40;62.60;;;;;;6276499;22;19967;-71
2021/11/07 06:06:36;;;;;;;;;;;7.30;62.60;;;;;;6276750;22;20307;-71
2021/11/07 06:09:02;;;;;;;;;;;7.40;62.70;;;;;;6276556;22;19906;-71
2021/11/07 06:11:28;;;;;;;;;;;7.40;62.70;;;;;;6276674;22;19903;-71
2021/11/07 06:13:55;;;;;;;;;;;7.40;62.80;;;;;;6276334;22;19956;-71
2021/11/07 06:16:21;;;;;;;;;;;7.40;62.80;;;;;;6276491;22;19914;-71
2021/11/07 06:18:46;;;;;;;;;;;7.40;63.60;;;;;;6276568;22;19974;-71
2021/11/07 06:21:12;;;;;;;;;;;7.40;62.80;;;;;;6276621;22;19906;-71
2021/11/07 06:23:39;;;;;;;;;;;7.50;62.90;;;;;;6276221;22;20302;-71
2021/11/07 06:26:05;;;;;;;;;;;7.50;62.90;;;;;;6276478;22;19903;-70
2021/11/07 06:28:30;;;;;;;;;;;7.50;62.80;;;;;;6276474;22;20333;-71
2021/11/07 06:31:02;;;;;;;;;;;7.50;62.80;;;;;;6276317;22;19910;-71
2021/11/07 06:33:27;;;;;;;;;;;7.60;62.90;;;;;;6276365;22;19910;-71
2021/11/07 06:35:53;;;;;;;;;;;7.60;62.80;;;;;;6276394;22;19900;-71
2021/11/07 06:38:18;;;;;;;;;;;7.60;62.70;;;;;;6276368;22;19982;-71
2021/11/07 06:40:44;;;;;;;;;;;7.60;62.70;;;;;;6276674;22;19974;-71
2021/11/07 06:43:10;;;;;;;;;;;7.60;62.70;;;;;;6276087;22;20277;-70
2021/11/07 06:45:36;;;;;;;;;;;7.60;62.60;;;;;;6276070;22;19926;-71
2021/11/07 06:48:02;;;;;;;;;;;7.70;62.70;;;;;;6276350;22;19903;-71
2021/11/07 06:50:28;;;;;;;;;;;7.70;62.80;;;;;;6276355;22;19899;-71
2021/11/07 06:52:53;;;;;;;;;;;7.70;62.70;;;;;;6275765;22;19933;-71
2021/11/07 06:55:20;;;;;;;;;;;7.70;62.70;;;;;;6276289;22;19899;-71
2021/11/07 06:57:47;;;;;;;;;;;7.80;62.80;;;;;;6274497;22;19930;-71
2021/11/07 07:00:14;;;;;;;;;;;7.90;62.80;;;;;;6276113;22;19899;-71
2021/11/07 07:02:40;;;;;;;;;;;7.90;62.80;;;;;;6275850;22;19905;-71
2021/11/07 07:05:07;;;;;;;;;;;8.00;63.00;;;;;;6274566;22;19949;-71
2021/11/07 07:07:36;;;;;;;;;;;8.00;63.00;;;;;;6276177;22;19953;-71
2021/11/07 07:10:04;;;;;;;;;;;8.10;62.90;;;;;;6276084;22;20266;-71
2021/11/07 07:12:37;;;;;;;;;;;8.10;62.70;;;;;;6276034;22;19929;-71
2021/11/07 07:15:17;;;;;;;;;;;8.20;62.60;;;;;;6275744;22;19989;-71
2021/11/07 07:18:06;;;;;;;;;;;8.20;62.60;;;;;;6275909;22;20385;-71
2021/11/07 07:20:46;;;;;;;;;;;8.30;62.50;;;;;;6275759;22;19910;-71
2021/11/07 07:31:31;;;;;;;;;;;8.50;61.80;;;;;;6276295;22;19895;-71
2021/11/07 07:34:06;;;;;;;;;;;8.50;61.80;;;;;;6275849;22;19906;-71
2021/11/07 07:36:32;;;;;;;;;;;8.50;61.70;;;;;;6275878;22;19906;-71
2021/11/07 07:38:58;;;;;;;;;;;8.60;61.60;;;;;;6275776;22;19970;-72
2021/11/07 07:41:24;;;;;;;;;;;8.60;61.50;;;;;;6275792;22;20332;-71
2021/11/07 07:43:51;;;;;;;;;;;8.60;61.30;;;;;;6275628;22;19949;-71
2021/11/07 07:46:17;;;;;;;;;;;8.60;61.30;;;;;;6275872;22;19977;-71
2021/11/07 07:48:45;;;;;;;;;;;8.70;61.20;;;;;;6275752;22;19905;-71
2021/11/07 07:51:12;;;;;;;;;;;8.70;61.00;;;;;;6275868;22;19907;-71
2021/11/07 07:53:39;;;;;;;;;;;8.70;60.90;;;;;;6274151;22;19895;-71
2021/11/07 07:56:05;;;;;;;;;;;8.70;60.70;;;;;;6275692;22;19903;-71
2021/11/07 07:58:31;;;;;;;;;;;8.70;60.50;;;;;;6275709;22;20311;-71
2021/11/07 08:00:57;;;;;;;;;;;8.60;60.50;;;;;;6275564;22;19950;-71
2021/11/07 08:03:23;;;;;;;;;;;8.70;60.70;;;;;;6273932;22;19903;-71
2021/11/07 08:05:49;;;;;;;;;;;8.70;60.80;;;;;;6275546;22;19906;-71
2021/11/07 08:08:14;;;;;;;;;;;8.70;60.70;;;;;;6275639;22;19907;-71
2021/11/07 08:10:41;;;;;;;;;;;8.70;60.70;;;;;;6275815;22;20218;-71
2021/11/07 08:13:07;;;;;;;;;;;8.70;60.60;;;;;;6275241;22;19919;-71
2021/11/07 08:15:33;;;;;;;;;;;8.70;60.70;;;;;;6275651;22;19937;-71
2021/11/07 08:17:59;;;;;;;;;;;8.70;60.70;;;;;;6275507;22;19899;-71
2021/11/07 08:20:24;;;;;;;;;;;8.80;60.70;;;;;;6273916;22;19929;-71
2021/11/07 08:22:51;;;;;;;;;;;8.70;60.40;;;;;;6275396;22;19903;-71
2021/11/07 08:25:21;;;;;;;;;;;8.70;60.30;;;;;;6275790;22;19899;-71
2021/11/07 08:27:48;;;;;;;;;;;8.70;60.20;;;;;;6275563;22;19949;-71
2021/11/07 08:30:15;;;;;;;;;;;8.70;60.20;;;;;;6275455;22;19949;-71
2021/11/07 08:32:40;;;;;;;;;;;8.70;60.10;;;;;;6275385;22;19953;-71
2021/11/07 08:35:07;;;;;;;;;;;8.70;60.10;;;;;;6275318;22;20311;-71
2021/11/07 08:40:31;;;;;;;;;;;8.70;60.50;;;;;;6245668;22;20282;-71
2021/11/07 08:43:06;;;;;;;;;;;8.70;60.40;;;;;;6275110;22;20337;-71
2021/11/07 09:04:41;;;;;;;;;;;9.30;60.40;;;;;;6275289;22;19903;-71
2021/11/07 09:07:18;;;;;;;;;;;9.40;60.30;;;;;;6275203;22;19899;-71
2021/11/07 09:09:45;;;;;;;;;;;9.50;60.20;;;;;;6275241;22;19996;-71
2021/11/07 09:12:11;;;;;;;;;;;9.50;60.00;;;;;;6275245;22;19922;-72
2021/11/07 09:14:37;;;;;;;;;;;9.70;60.20;;;;;;6275511;22;19911;-71
2021/11/07 09:17:05;;;;;;;;;;;9.80;60.10;;;;;;6277096;22;20307;-71
2021/11/07 09:19:32;;;;;;;;;;;9.90;60.20;;;;;;6277080;22;19905;-71
2021/11/07 09:22:05;;;;;;;;;;;10.10;59.90;;;;;;6277064;22;19953;-71
2021/11/07 09:24:47;;;;;;;;;;;10.20;59.60;;;;;;6277049;22;19910;-71
2021/11/07 09:27:25;;;;;;;;;;;10.20;59.30;;;;;;6275582;22;19903;-71
2021/11/07 09:34:58;;;;;;;;;;;10.30;58.40;;;;;;6277544;22;20299;-72
2021/11/07 09:37:30;;;;;;;;;;;10.40;58.10;;;;;;6277067;22;20235;-72
2021/11/07 09:40:07;;;;;;;;;;;10.30;57.80;;;;;;6277065;22;19899;-71
2021/11/07 09:45:09;;;;;;;;;;;10.30;57.60;;;;;;6277110;22;19999;-71
2021/11/07 09:47:37;;;;;;;;;;;10.20;57.40;;;;;;6277273;22;19899;-71
2021/11/07 09:50:04;;;;;;;;;;;10.20;57.70;;;;;;6277478;22;19923;-72
2021/11/07 09:52:36;;;;;;;;;;;10.20;57.30;;;;;;6277915;22;20299;-72
2021/11/07 09:55:05;;;;;;;;;;;10.20;57.20;;;;;;6277955;22;20379;-71
2021/11/07 09:57:32;;;;;;;;;;;10.10;57.10;;;;;;6277842;22;19899;-71
2021/11/07 09:59:59;;;;;;;;;;;10.10;57.10;;;;;;6278057;22;19900;-71
2021/11/07 10:02:26;;;;;;;;;;;10.20;57.40;;;;;;6277538;22;20032;-71
2021/11/07 10:04:53;;;;;;;;;;;10.20;57.40;;;;;;6277721;22;19915;-71
2021/11/07 10:07:23;;;;;;;;;;;10.20;57.30;;;;;;6277108;22;19903;-71
2021/11/07 10:09:55;;;;;;;;;;;10.20;57.20;;;;;;6275910;22;19899;-72
2021/11/07 10:12:31;;;;;;;;;;;10.30;57.00;;;;;;6277466;22;19899;-71
2021/11/07 10:14:59;;;;;;;;;;;10.20;56.80;;;;;;6275665;22;19911;-71
2021/11/07 10:17:55;;;;;;;;;;;10.20;56.70;;;;;;6277522;22;20371;-71
2021/11/07 10:20:31;;;;;;;;;;;10.10;56.50;;;;;;6277637;22;19895;-69
2021/11/07 10:23:12;;;;;;;;;;;10.10;56.70;;;;;;6277298;22;20330;-70
2021/11/07 10:25:39;;;;;;;;;;;10.10;56.80;;;;;;6277011;22;19929;-70
2021/11/07 10:28:14;;;;;;;;;;;10.20;57.20;;;;;;6277156;22;20022;-70
2021/11/07 10:30:45;;;;;;;;;;;10.20;57.20;;;;;;6275700;22;19906;-71
2021/11/07 10:33:24;;;;;;;;;;;10.30;57.30;;;;;;6277184;22;20235;-70
2021/11/07 10:39:03;;;;;;;;;;;10.50;57.30;;;;;;6220877;22;19970;-71
2021/11/07 10:47:11;;;;;;;;;;;10.90;56.70;;;;;;6277165;22;19903;-71
2021/11/07 10:52:27;;;;;;;;;;;10.90;56.20;;;;;;6277036;22;20285;-70
2021/11/07 10:54:53;;;;;;;;;;;10.90;56.00;;;;;;6276506;22;19899;-71
2021/11/07 10:57:23;;;;;;;;;;;10.90;55.80;;;;;;6275379;22;19900;-72
2021/11/07 11:00:08;;;;;;;;;;;10.90;55.70;;;;;;6275493;22;20238;-71
2021/11/07 11:02:35;;;;;;;;;;;10.90;55.60;;;;;;6276864;22;19903;-72
2021/11/07 11:05:02;;;;;;;;;;;10.90;55.60;;;;;;6276981;22;19923;-71
2021/11/07 11:07:29;;;;;;;;;;;10.90;55.70;;;;;;6276920;22;19899;-71
2021/11/07 11:10:07;;;;;;;;;;;10.90;55.80;;;;;;6277029;22;20311;-70
2021/11/07 11:12:34;;;;;;;;;;;10.90;55.70;;;;;;6277068;22;20290;-71
2021/11/07 11:15:25;;;;;;;;;;;10.90;55.70;;;;;;6276246;22;20273;-71
2021/11/07 11:18:05;;;;;;;;;;;10.90;55.70;;;;;;6276552;22;19925;-70
2021/11/07 11:20:44;;;;;;;;;;;10.90;55.70;;;;;;6276645;22;20204;-71
2021/11/07 11:23:22;;;;;;;;;;;11.00;55.70;;;;;;6276690;22;20054;-71
2021/11/07 11:25:57;;;;;;;;;;;11.00;55.50;;;;;;6275890;22;19900;-70
2021/11/07 11:28:34;;;;;;;;;;;11.00;55.40;;;;;;6276749;22;19899;-70
2021/11/07 11:31:08;;;;;;;;;;;11.10;55.20;;;;;;6276379;22;20334;-71
2021/11/07 11:33:43;;;;;;;;;;;11.10;55.20;;;;;;6274864;22;20239;-72
2021/11/07 11:36:46;;;;;;;;;;;11.20;55.30;;;;;;6275200;22;19899;-72
2021/11/07 11:39:14;;;;;;;;;;;11.20;55.00;;;;;;6271895;22;19914;-73
2021/11/07 11:41:54;;;;;;;;;;;11.30;54.90;;;;;;6274893;22;19907;-72
2021/11/07 11:44:21;;;;;;;;;;;11.30;54.80;;;;;;6271606;22;20103;-73
2021/11/07 11:46:53;;;;;;;;;;;11.40;54.50;;;;;;6274548;22;19945;-73
2021/11/07 11:52:26;;;;;;;;;;;11.50;54.40;;;;;;6276044;22;19899;-73
2021/11/07 12:02:27;;;;;;;;;;;12.00;53.80;;;;;;6275500;22;19899;-74
2021/11/07 12:05:27;;;;;;;;;;;12.00;53.20;;;;;;6275481;22;20180;-74
2021/11/07 12:08:14;;;;;;;;;;;12.10;52.90;;;;;;6275189;22;19899;-74
2021/11/07 12:10:48;;;;;;;;;;;12.20;53.10;;;;;;6275220;22;20012;-72
2021/11/07 12:13:32;;;;;;;;;;;12.30;53.00;;;;;;6275018;22;20319;-73
2021/11/07 12:16:03;;;;;;;;;;;12.40;52.90;;;;;;6275148;22;19907;-73
2021/11/07 12:18:29;;;;;;;;;;;12.40;52.80;;;;;;6275100;22;19980;-73
2021/11/07 12:20:57;;;;;;;;;;;12.50;52.50;;;;;;6275205;22;19899;-74
2021/11/07 12:23:34;;;;;;;;;;;12.50;52.20;;;;;;6273372;22;20345;-73
2021/11/07 12:26:18;;;;;;;;;;;12.60;52.10;;;;;;6275354;22;19978;-73
2021/11/07 12:28:45;;;;;;;;;;;12.60;52.10;;;;;;6273021;22;19906;-73
2021/11/07 12:31:11;;;;;;;;;;;12.70;52.10;;;;;;6274942;22;19899;-73
2021/11/07 12:33:48;;;;;;;;;;;12.70;52.00;;;;;;6274880;22;19941;-74
2021/11/07 12:41:42;;;;;;;;;;;12.70;51.20;;;;;;6274950;22;19906;-73
2021/11/07 12:44:19;;;;;;;;;;;12.60;51.00;;;;;;6274389;22;19934;-73
2021/11/07 12:47:00;;;;;;;;;;;12.50;50.90;;;;;;6275042;22;19986;-73
2021/11/07 12:49:27;;;;;;;;;;;12.50;50.90;;;;;;6275419;22;19953;-73
2021/11/07 12:51:57;;;;;;;;;;;12.40;50.90;;;;;;6276696;22;19922;-73
2021/11/07 12:54:23;;;;;;;;;;;12.30;51.00;;;;;;6276629;22;20315;-73
2021/11/07 12:56:49;;;;;;;;;;;12.20;51.20;;;;;;6276744;22;19974;-73
2021/11/07 12:59:19;;;;;;;;;;;12.20;51.40;;;;;;6276387;22;20287;-73
2021/11/07 13:02:11;;;;;;;;;;;12.10;51.30;;;;;;6276793;22;20030;-73
2021/11/07 13:05:07;;;;;;;;;;;12.00;51.50;;;;;;6263363;22;20273;-73
2021/11/07 13:07:33;;;;;;;;;;;12.00;51.40;;;;;;6275779;22;20244;-73
2021/11/07 13:10:02;;;;;;;;;;;12.00;51.40;;;;;;6275911;22;19921;-73
2021/11/07 13:12:34;;;;;;;;;;;11.90;51.80;;;;;;6275838;22;19899;-73
2021/11/07 13:33:42;;;;;;;;;;;11.90;52.10;;;;;;6275936;22;19939;-73
2021/11/07 13:36:08;;;;;;;;;;;11.90;52.10;;;;;;6276550;22;19899;-73
2021/11/07 13:38:51;;;;;;;;;;;12.00;52.10;;;;;;6276842;22;20310;-73
2021/11/07 13:41:19;;;;;;;;;;;12.00;51.90;;;;;;6276352;22;20234;-73
2021/11/07 13:43:47;;;;;;;;;;;12.10;52.00;;;;;;6276992;22;20254;-74
2021/11/07 13:46:14;;;;;;;;;;;12.10;52.00;;;;;;6277413;22;19900;-74
2021/11/07 13:48:40;;;;;;;;;;;12.20;52.00;;;;;;6277201;22;19899;-73
2021/11/07 13:51:06;;;;;;;;;;;12.30;51.80;;;;;;6277799;22;19899;-74
2021/11/07 13:53:37;;;;;;;;;;;12.30;51.80;;;;;;6277838;22;19905;-73
2021/11/07 13:56:04;;;;;;;;;;;12.40;51.80;;;;;;6277757;22;19903;-69
2021/11/07 13:58:31;;;;;;;;;;;12.50;51.70;;;;;;6278223;22;20332;-69
2021/11/07 14:01:00;;;;;;;;;;;12.50;51.40;;;;;;6277656;22;19899;-68
2021/11/07 14:03:26;;;;;;;;;;;12.60;51.20;;;;;;6277698;22;19903;-71
2021/11/07 14:05:56;;;;;;;;;;;12.70;51.20;;;;;;6277764;22;19982;-69
2021/11/07 14:08:23;;;;;;;;;;;12.70;51.10;;;;;;6277703;22;19895;-68
2021/11/07 14:10:49;;;;;;;;;;;12.70;51.10;;;;;;6277739;22;19974;-69
2021/11/07 14:13:16;;;;;;;;;;;12.80;51.10;;;;;;6277324;22;19978;-69
2021/11/07 14:15:45;;;;;;;;;;;12.80;51.10;;;;;;6277806;22;20231;-69
2021/11/07 14:18:14;;;;;;;;;;;12.80;51.00;;;;;;6277487;22;19903;-69
2021/11/07 14:20:41;;;;;;;;;;;12.80;51.60;;;;;;6277488;22;19930;-69
2021/11/07 14:23:13;;;;;;;;;;;12.90;50.90;;;;;;6277486;22;19903;-69
2021/11/07 14:25:54;;;;;;;;;;;12.90;50.80;;;;;;6277518;22;19938;-69
2021/11/07 14:28:23;;;;;;;;;;;12.80;50.60;;;;;;6277496;22;20274;-69
2021/11/07 14:30:50;;;;;;;;;;;12.80;50.40;;;;;;6277429;22;19899;-69
2021/11/07 14:33:30;;;;;;;;;;;12.80;50.30;;;;;;6277298;22;19906;-69
2021/11/07 14:36:03;;;;;;;;;;;12.70;50.20;;;;;;6277510;22;20312;-69
2021/11/07 14:38:38;;;;;;;;;;;12.60;50.20;;;;;;6277267;22;19899;-68
2021/11/07 14:41:12;;;;;;;;;;;12.60;50.30;;;;;;6277395;22;19906;-68
2021/11/07 14:43:56;;;;;;;;;;;12.50;50.40;;;;;;6277310;22;19910;-70
2021/11/07 14:46:38;;;;;;;;;;;12.40;50.20;;;;;;6275668;22;19984;-68
2021/11/07 14:49:28;;;;;;;;;;;12.30;50.40;;;;;;6277346;22;19899;-69
2021/11/07 14:52:35;;;;;;;;;;;12.30;50.40;;;;;;6277326;22;19899;-68
2021/11/07 14:54:53;;;;;;;;;;;12.20;50.40;;;;;;6274154;22;19899;-69
2021/11/07 15:00:02;;;;;;;;;;;12.00;50.40;;;;;;6277983;22;19930;-68
2021/11/07 15:05:36;;;;;;;;;;;11.80;50.70;;;;;;6278021;22;20319;-68
2021/11/07 15:11:04;;;;;;;;;;;11.70;51.00;;;;;;6277277;22;20242;-66
2021/11/07 15:13:57;;;;;;;;;;;11.60;51.10;;;;;;6276521;22;20278;-68
2021/11/07 15:16:38;;;;;;;;;;;11.60;51.20;;;;;;6276978;22;19899;-71
2021/11/07 15:19:11;;;;;;;;;;;11.50;51.40;;;;;;6277035;22;19899;-67
2021/11/07 15:24:37;;;;;;;;;;;11.40;51.50;;;;;;6277433;22;19965;-68
2021/11/07 15:27:02;;;;;;;;;;;11.40;51.60;;;;;;6276932;22;19900;-69
2021/11/07 15:29:31;;;;;;;;;;;11.30;51.60;;;;;;6276491;22;19960;-68
2021/11/07 15:32:00;;;;;;;;;;;11.30;51.80;;;;;;6276987;22;20234;-68
2021/11/07 15:34:29;;;;;;;;;;;11.30;51.80;;;;;;6276502;22;19899;-69
2021/11/07 15:36:55;;;;;;;;;;;11.20;51.80;;;;;;6276709;22;20311;-69
2021/11/07 15:39:22;;;;;;;;;;;11.10;51.90;;;;;;6276774;22;19899;-68
2021/11/07 15:42:06;;;;;;;;;;;11.10;52.00;;;;;;6276693;22;19905;-69
2021/11/07 15:44:36;;;;;;;;;;;11.00;52.00;;;;;;6276599;22;19904;-68
2021/11/07 15:47:03;;;;;;;;;;;11.00;52.10;;;;;;6276728;22;19949;-67
2021/11/07 15:49:34;;;;;;;;;;;10.90;52.20;;;;;;6277086;22;19922;-69
2021/11/07 15:52:16;;;;;;;;;;;10.90;52.30;;;;;;6276648;22;20289;-68
2021/11/07 15:54:53;;;;;;;;;;;10.80;52.30;;;;;;6276650;22;19935;-69
2021/11/07 15:57:35;;;;;;;;;;;10.80;52.50;;;;;;6276691;22;20319;-69
2021/11/07 16:00:20;;;;;;;;;;;10.70;52.60;;;;;;6276742;22;19918;-69
2021/11/07 16:13:19;;;;;;;;;;;10.60;53.20;;;;;;6243078;23;19911;-68
2021/11/07 16:15:53;;;;;;;;;;;10.60;53.40;;;;;;6243250;23;19953;-69
2021/11/07 16:18:20;;;;;;;;;;;10.60;53.50;;;;;;6243126;23;20422;-69
2021/11/07 16:20:46;;;;;;;;;;;10.70;53.60;;;;;;6217569;23;19899;-68
2021/11/07 16:23:11;;;;;;;;;;;10.70;53.60;;;;;;6242933;23;20021;-68
2021/11/07 16:25:39;;;;;;;;;;;10.80;53.60;;;;;;6242676;23;19900;-68
2021/11/07 16:28:06;;;;;;;;;;;10.80;53.50;;;;;;6243129;23;19903;-68
2021/11/07 16:30:33;;;;;;;;;;;10.90;53.50;;;;;;6242935;23;19907;-70
2021/11/07 16:36:19;;;;;;;;;;;10.90;53.30;;;;;;6182897;23;20039;-68
2021/11/07 16:38:57;;;;;;;;;;;10.90;53.30;;;;;;6157793;23;19983;-69
2021/11/07 16:41:36;;;;;;;;;;;10.90;53.20;;;;;;6182693;23;19936;-69
2021/11/07 16:44:04;;;;;;;;;;;11.00;53.20;;;;;;6218161;23;19938;-69
2021/11/07 16:46:32;;;;;;;;;;;11.00;53.80;;;;;;6242028;23;19979;-68
2021/11/07 16:48:59;;;;;;;;;;;11.00;53.20;;;;;;6242977;23;19900;-71
2021/11/07 16:51:29;;;;;;;;;;;11.00;53.10;;;;;;6217558;23;19908;-69
2021/11/07 16:53:59;;;;;;;;;;;11.00;53.20;;;;;;6217667;23;19899;-67